Climbing Keuka for Kids 5K results

5K Run/Walk

Overall Name City, State Bib Age Gender AG Place Time Pace
1 MACK OTTENS KIRKWOOD NE 102 18 M TOP FIN 21:55 7:03/M
2 JARROD REED CLIFTON SPRINGS NE 56 33 M 1 (30-39) 22:52 7:21/M
3 RYAN BYRD EAST SYRACUSE NE 129 42 M 1 (40-49) 24:42 7:57/M
4 GEORGE DIEFFENBACH PITTSBURGH PE 100 63 M 1 (60-69) 25:20 8:09/M
5 KURT SOPPE CANANDAIGUA NE 123 25 M 1 (20-29) 26:26 8:30/M
6 JOSHUA BAXTER PENN YAN NE 107 19 M 1 (1-19) 26:56 8:40/M
7 ELLYN JAMESON BRANCHPORT NE 108 27 F TOP FIN 27:05 8:43/M
8 DANIEL LEDGERWOOD PENN YAN NE 126 19 M 2 (1-19) 27:51 8:57/M
9 THOMAS SANTEE HORNELL NE 81 68 M 2 (60-69) 28:00 9:00/M
10 JULIA HINKAL PENN YAN NE 14 31 F 1 (30-39) 28:08 9:03/M
11 NATHANIEL WATTS ROCHESTER NE 5 22 M 2 (20-29) 28:08 9:03/M
12 THOMAS FABEN ROCHESTER NE 124 43 M 2 (40-49) 28:21 9:07/M
13 ANNIKA BOWERSOCK PATASKALA OH 7 22 F 1 (20-29) 28:27 9:09/M
14 JULIEN MILLER PENN YAN NE 85 12 M 3 (1-19) 28:30 9:10/M
15 BLAKE REED CANANDAIGUA NE 54 14 M 4 (1-19) 29:57 9:38/M
16 NIK RUPPERSBERGER CDGA NE 26 11 M 5 (1-19) 30:09 9:42/M
17 KAYLA MCCANN PENN YAN NE 2 25 F 2 (20-29) 30:30 9:49/M
18 WARD ABBETT PENN YAN NE 1 72 M 1 (70-99) 30:33 9:49/M
19 SARA QUINN PENN YAN NE 75 46 F 1 (40-49) 30:40 9:52/M
20 DAVID TESE PENN YAN NE 113 29 M 3 (20-29) 30:47 9:54/M
21 DONNA LEDGERWOOD PENN YAN NE 125 51 F 1 (50-59) 30:49 9:55/M
22 LISA MILLER PENN YAN NE 50 51 F 2 (50-59) 31:20 10:05/M
23 TODD WHITFORD BLUFF POINT NE 134 41 M 3 (40-49) 31:49 10:14/M
24 ROBERT CAMERON KEUKA PARK NE 13 69 M 3 (60-69) 31:56 10:16/M
25 HILLARD SARVER DRESDEN NE 95 56 M 1 (50-59) 32:01 10:18/M
26 KIM MURPHY PENN YAN NE 117 34 F 2 (30-39) 32:09 10:20/M
27 SABASTIAN STAHLMAN BRANCHPORT NE 70 12 M 6 (1-19) 33:04 10:38/M
28 ABBY TOWNLEY DUNDEE NE 69 37 F 3 (30-39) 33:14 10:41/M
29 TYLOR CAMPBELL BRANCHPORT NE 128 12 M 7 (1-19) 33:16 10:42/M
30 STORM SUTHERLAND BRANCHPORT NE 110 10 M 8 (1-19) 33:17 10:42/M
31 TAYLOR BOND STANLEY NE 48 9 F 1 (1-19) 33:22 10:44/M
32 SUSAN BOND STANLEY NE 47 40 F 2 (40-49) 33:24 10:45/M
33 BRYNN DAY HAMMONDSPORT NE 118 23 F 3 (20-29) 33:31 10:47/M
34 DAVID JACKSON PENN YAN NE 131 59 M 2 (50-59) 34:11 11:00/M
35 KIRA NAVARRE HAMMONDSPORT NE 90 12 F 2 (1-19) 34:33 11:07/M
36 MARY JAYNE PENN YAN NE 99 28 F 4 (20-29) 34:34 11:07/M
37 REANE GREGORY HIMROD NE 130 12 F 3 (1-19) 34:48 11:12/M
38 KATIE ZEBROWSKI DUNDEE NE 29 22 F 5 (20-29) 35:49 11:31/M
39 LUCAS KIRBY SYRACUSE NE 67 33 M 2 (30-39) 35:50 11:32/M
40 DANIEL COCRIS GENEVA NE 41 44 M 4 (40-49) 35:53 11:32/M
41 JEFF JACOBS CDGA NE 97 35 M 3 (30-39) 36:08 11:37/M
42 MELISSA JOHNSON BRANCHPORT NE 19 37 F 4 (30-39) 36:18 11:41/M
43 MARCY WATTS ROCHESTER NE 3 51 F 3 (50-59) 36:27 11:43/M
44 AMBER BRADY PENN YAN NE 120 37 F 5 (30-39) 36:36 11:46/M
45 TIM GALLAGHER PENN YAN NE 9 27 M 4 (20-29) 36:36 11:46/M
46 KARA GALLAGHER PENN YAN NE 10 28 F 6 (20-29) 36:37 11:47/M
47 ERAS YAGER PITTSBURGH PE 104 14 F 4 (1-19) 36:43 11:49/M
48 KAITLYN SCHIEK PENN YAN NE 73 19 F 5 (1-19) 36:45 11:49/M
49 CHRISTINE PAIGE KEUKA PARK NE 16 41 F 3 (40-49) 37:01 11:54/M
50 KATRINA JACOBS CDGA NE 27 34 F 6 (30-39) 37:15 11:59/M
51 JACOB WATTS ROCHESTER NE 6 19 M 9 (1-19) 37:26 12:02/M
52 BETH FULTZ DUNDEE NE 72 55 F 4 (50-59) 37:39 12:07/M
53 KATHY COURTNEY PALMYRA NE 93 54 F 5 (50-59) 37:52 12:11/M
54 PATRICK STAHLMAN BRANCHPORT NE 71 39 M 4 (30-39) 38:26 12:22/M
55 JORDAN SMITH LYONS NE 64 22 F 7 (20-29) 39:01 12:33/M
56 JENNIFER O\\\’SHAUGHNESSY MIDDLESEX NE 57 64 F 1 (60-69) 39:23 12:40/M
57 LARRY WATTS ROCHESTER NE 4 52 M 3 (50-59) 39:57 12:51/M
58 HALEY BROWN DUNDEE NE 28 22 F 8 (20-29) 40:01 12:52/M
59 LOGAN MILLER PENN YAN NE 106 9 M 10 (1-19) 40:13 12:56/M
60 CHARLEY EVELAND KEUKA PARK NE 38 8 F 6 (1-19) 40:14 12:56/M
61 LARA KORITZKE HAMMONDSPORT NE 91 46 F 4 (40-49) 40:25 13:00/M
62 TESSA HANAGAN GENEVA NE 94 33 F 7 (30-39) 40:42 13:06/M
63 DANIELLE NIELSEN KEUKA PARK NE 133 25 F 9 (20-29) 40:55 13:10/M
64 KEVIN MARTIN GENEVA NE 111 42 M 5 (40-49) 41:07 13:14/M
65 ANNE OLMSTEAD PENN YAN NE 24 53 F 6 (50-59) 41:44 13:25/M
66 BROOKE BAUGHMAN KEUKA PARK NE 25 33 F 8 (30-39) 41:47 13:26/M
67 CARRIE BAUGHMAN PENN YAN NE 80 32 F 9 (30-39) 41:58 13:30/M
68 SABRINA MILLER PENN YAN NE 105 30 F 10 (30-39) 42:01 13:31/M
69 PATRICIA MUNCH PENN YAN NE 89 63 F 2 (60-69) 43:19 13:56/M
70 KENNETH MUNCH PENN YAN NE 88 64 M 4 (60-69) 43:41 14:03/M
71 BARB WHEELER DUNDEE NE 15 54 F 7 (50-59) 44:33 14:20/M
72 JEANETTE WILEY NE 127 27 F 10 (20-29) 44:43 14:23/M
73 KIMBERLY SAMUELSON BLOOMFIELD NE 135 26 F 11 (20-29) 44:44 14:23/M
74 JILL O\\\’BRIEN GENEVA NE 31 39 F 11 (30-39) 44:58 14:28/M
75 CAROLYN MCALLISTER DRESDEN NE 59 60 F 3 (60-69) 44:59 14:28/M
76 BARBARA ALDRICH GENEVA NE 61 59 F 8 (50-59) 45:55 14:46/M
77 BETH SOMERS PENN YAN NE 114 58 F 9 (50-59) 46:15 14:53/M
78 SARAH HESTLEY DUNDEE NE 11 54 F 10 (50-59) 46:17 14:53/M
79 JOHN SOMERS PENN YAN NE 115 58 M 4 (50-59) 46:18 14:54/M
80 MURRAY HESTLEY DUNDEE NE 12 69 M 5 (60-69) 46:28 14:57/M
81 ROBERT YAGER PITTSBURGH PE 103 54 M 5 (50-59) 47:01 15:07/M
82 LORRAINE JACKSON PENN YAN NE 132 55 F 11 (50-59) 47:15 15:12/M
83 DEBORAH MARTIN PENN YAN NE 44 61 F 4 (60-69) 50:40 16:18/M
84 CONNIE BLACK HIMROD NE 43 60 F 5 (60-69) 50:45 16:20/M
85 ABI BUDDINGTON ROCHESTER NE 101 46 F 5 (40-49) 51:33 16:35/M
86 KAREN WHITE GENEVA NE 98 49 F 6 (40-49) 51:40 16:37/M
87 SHERALYN FOX PENN YAN NE 109 65 F 6 (60-69) 53:44 17:17/M
88 BRITTANY MOYER KEUKA PARK NE 30 25 F 12 (20-29) 55:55 17:59/M
89 SHANNON CALI WATERLOO NE 17 33 F 12 (30-39) 57:12 18:24/M
90 PAUL CALI WATERLOO NE 18 40 M 6 (40-49) 57:45 18:35/M
91 KATHERINE MOON PENN YAN NE 76 65 F 7 (60-69) 58:47 18:55/M
92 KAREN REED CANANDAIGUA NE 53 64 F 8 (60-69) 58:50 18:56/M
93 PATTI HARLING PENN YAN NE 96 46 F 7 (40-49) 59:43 19:13/M
94 MARY LOU CULVER PENN YAN NE 45 53 F 12 (50-59) 59:56 19:17/M
95 PATSY BALLARD DUNDEE NE 46 55 F 13 (50-59) 1:00:04 19:20/M
96 CARYL CAMERON KEUKA PARK NE 87 75 F 1 (70-99) 1:01:24 19:45/M
97 BREANNA REED PHELPS NE 22 23 F 13 (20-29) 1:02:21 20:04/M
98 SCOTT REED CANANDAIGUA NE 52 33 M 5 (30-39) 1:03:07 20:18/M
99 TAMMY REED PHELPS NE 23 42 F 8 (40-49) 1:03:10 20:19/M
100 ELLEN REED CANANDAIGUA NE 51 28 F 14 (20-29) 1:03:12 20:20/M
101 KATE RING PENN YAN NE 66 67 F 9 (60-69) 1:04:54 20:53/M
102 BEVERLY CEROW PENN YAN NE 74 65 F 10 (60-69) 1:04:55 20:53/M
103 PATRICK SPENCE CLIFTON SPRINGS NE 83 37 M 6 (30-39) 1:05:34 21:06/M
104 CADENCE SPENCE CLIFTON SPRINGS NE 84 10 F 7 (1-19) 1:05:35 21:06/M
105 JESSICA SPENCE CLIFTON SPRINGS NE 82 37 F 13 (30-39) 1:05:37 21:07/M
106 KATHERINE CHILDS PENN YAN NE 78 68 F 11 (60-69) 1:05:42 21:08/M
107 CAROL ANDERSEN CANANDAIGUA NE 119 59 F 14 (50-59) 1:05:44 21:09/M
108 BARB MCGUFFIE PENN YAN NE 92 61 F 12 (60-69) 1:05:45 21:09/M
109 BARB COOK BRANCHPORT NE 116 55 F 15 (50-59) 1:05:46 21:10/M
110 SCOTT MCWILLIAMS PENN YAN NE 137 49 M 7 (40-49) 1:08:23 22:00/M
111 CHERI MCCAULEY FARMINGTON NE 136 52 F 16 (50-59) 1:08:25 22:01/M